createdAt,value
2023-07-02T03:40:11.397Z,1.55
2023-07-02T03:42:38.433Z,0.45
2023-07-02T03:45:05.690Z,0.35
2023-07-02T03:47:32.517Z,0.95
2023-07-02T03:50:09.862Z,0.57
2023-07-02T03:52:42.142Z,0.35
2023-07-02T03:55:09.327Z,0.30
2023-07-02T03:57:36.064Z,0.30
2023-07-02T04:00:06.033Z,0.32
2023-07-02T04:02:41.719Z,0.40
2023-07-02T04:05:08.713Z,0.30
2023-07-02T04:07:35.635Z,0.13
2023-07-02T04:10:02.395Z,0.40
2023-07-02T04:12:29.296Z,0.95
2023-07-02T04:14:56.014Z,0.38
2023-07-02T04:17:22.784Z,0.17
2023-07-02T04:19:50.153Z,0.70
2023-07-02T04:22:17.086Z,0.65
2023-07-02T04:24:46.778Z,0.20
2023-07-02T04:27:50.165Z,0.17
2023-07-02T04:30:01.768Z,0.08
2023-07-02T04:32:28.746Z,0.45
2023-07-02T04:34:55.624Z,0.20
2023-07-02T04:37:23.188Z,0.25
2023-07-02T04:39:50.126Z,1.10
2023-07-02T04:42:16.960Z,0.20
2023-07-02T04:44:44.402Z,0.25
2023-07-02T04:47:12.734Z,0.10
2023-07-02T04:49:40.263Z,0.50
2023-07-02T04:52:07.410Z,0.47
2023-07-02T04:55:09.874Z,1.15
2023-07-02T04:57:37.197Z,0.50
2023-07-02T05:00:05.186Z,0.47
2023-07-02T05:02:31.967Z,0.68
2023-07-02T05:04:58.875Z,0.40
2023-07-02T05:07:25.644Z,0.32
2023-07-02T05:12:58.214Z,0.50
2023-07-02T05:15:25.309Z,0.20
2023-07-02T05:17:52.577Z,0.52
2023-07-02T05:20:19.420Z,0.30
2023-07-02T05:22:46.225Z,0.22
2023-07-02T05:25:12.998Z,0.40
2023-07-02T05:27:39.868Z,0.30
2023-07-02T05:30:07.372Z,0.30
2023-07-02T05:32:35.350Z,0.40
2023-07-02T05:35:17.859Z,0.85
2023-07-02T05:37:58.202Z,0.40
2023-07-02T05:40:25.127Z,0.60
2023-07-02T05:42:51.917Z,0.77
2023-07-02T05:45:18.955Z,0.63
2023-07-02T05:47:46.123Z,0.10
2023-07-02T05:50:13.057Z,0.32
2023-07-02T05:52:39.898Z,0.57
2023-07-02T05:55:11.333Z,0.60
2023-07-02T05:57:41.184Z,0.60
2023-07-02T06:00:08.827Z,0.17
2023-07-02T06:02:41.638Z,0.43
2023-07-02T06:05:09.117Z,0.30
2023-07-02T06:07:37.164Z,0.38
2023-07-02T06:10:05.397Z,0.55
2023-07-02T06:12:32.230Z,0.80
2023-07-02T06:14:59.039Z,0.40
2023-07-02T06:17:26.299Z,0.38
2023-07-02T06:19:53.526Z,0.60
2023-07-02T06:22:20.365Z,0.57
2023-07-02T06:24:47.161Z,1.10
2023-07-02T06:27:14.100Z,0.45
2023-07-02T06:29:40.959Z,0.43
2023-07-02T06:32:07.905Z,0.65
2023-07-02T06:34:34.720Z,0.50
2023-07-02T06:37:01.502Z,0.73
2023-07-02T06:39:28.601Z,0.50
2023-07-02T06:41:58.260Z,1.05
2023-07-02T06:44:29.819Z,0.40
2023-07-02T06:46:56.747Z,1.17
2023-07-02T06:49:23.929Z,0.60
2023-07-02T06:51:50.863Z,0.73
2023-07-02T06:54:17.758Z,1.05
2023-07-02T06:56:44.547Z,1.02
2023-07-02T06:59:11.346Z,0.50
2023-07-02T07:01:38.261Z,1.02
2023-07-02T07:04:05.363Z,0.30
2023-07-02T07:06:32.232Z,0.88
2023-07-02T07:08:59.067Z,0.70
2023-07-02T07:11:25.899Z,0.68
2023-07-02T07:13:52.847Z,2.35
2023-07-02T07:16:19.754Z,0.52
2023-07-02T07:19:08.484Z,0.85
2023-07-02T07:21:42.927Z,1.13
2023-07-02T07:24:15.909Z,0.25
2023-07-02T07:26:50.897Z,0.65
2023-07-02T07:29:20.277Z,0.90
2023-07-02T07:31:47.526Z,1.02
2023-07-02T07:34:14.530Z,0.45
2023-07-02T07:36:46.079Z,0.93
2023-07-02T07:39:20.314Z,0.85
2023-07-02T07:42:00.203Z,0.40
2023-07-02T07:44:35.926Z,0.80
2023-07-02T07:47:02.752Z,0.45
2023-07-02T07:49:29.494Z,1.00
2023-07-02T07:51:56.476Z,0.68
2023-07-02T07:54:56.406Z,0.75
2023-07-02T07:57:28.082Z,1.08
2023-07-02T07:59:54.860Z,0.47
2023-07-02T08:02:24.020Z,1.33
2023-07-02T08:04:50.893Z,1.50
2023-07-02T08:07:17.692Z,0.55
2023-07-02T08:09:44.425Z,0.60
2023-07-02T08:12:11.327Z,1.25
2023-07-02T08:14:38.094Z,0.30
2023-07-02T08:17:05.036Z,0.43
2023-07-02T08:19:34.656Z,0.17
2023-07-02T08:22:01.447Z,0.30
2023-07-02T08:24:28.329Z,0.85
2023-07-02T08:26:55.180Z,0.70
2023-07-02T08:29:22.033Z,1.33
2023-07-02T08:31:49.009Z,0.88
2023-07-02T08:34:15.979Z,0.50
2023-07-02T08:36:44.551Z,0.77
2023-07-02T08:39:11.881Z,0.57
2023-07-02T08:42:14.401Z,0.73
2023-07-02T08:44:51.435Z,1.00
2023-07-02T08:47:18.795Z,0.85
2023-07-02T08:49:46.001Z,0.55
2023-07-02T08:52:12.760Z,0.47
2023-07-02T08:54:39.667Z,0.30
2023-07-02T08:57:06.931Z,1.23
2023-07-02T08:59:33.742Z,0.82
2023-07-02T09:02:12.734Z,0.20
2023-07-02T09:05:02.642Z,0.88
2023-07-02T09:14:46.860Z,7.63
2023-07-02T09:17:36.188Z,7.53
2023-07-02T09:20:09.862Z,7.07
2023-07-02T09:22:54.519Z,6.78
2023-07-02T09:25:21.392Z,7.85
2023-07-02T09:27:48.562Z,7.93
2023-07-02T09:30:17.265Z,7.53
2023-07-02T09:32:48.026Z,7.57
2023-07-02T09:35:23.122Z,7.15
2023-07-02T09:38:11.850Z,7.47
2023-07-02T09:40:53.966Z,8.18
2023-07-02T09:43:25.163Z,7.55
2023-07-02T09:45:54.949Z,7.10
2023-07-02T09:48:30.040Z,7.45
2023-07-02T09:51:00.419Z,8.20
2023-07-02T09:53:28.998Z,7.40
2023-07-02T09:55:56.571Z,7.90
2023-07-02T09:58:23.678Z,9.05
2023-07-02T10:01:01.025Z,7.60
2023-07-02T10:03:46.068Z,7.75
2023-07-02T10:06:22.187Z,6.70
2023-07-02T10:11:46.158Z,7.85
2023-07-02T10:14:18.603Z,7.25
2023-07-02T10:17:01.861Z,7.32
2023-07-02T10:22:54.403Z,7.05
2023-07-02T10:25:34.906Z,7.32
2023-07-02T10:28:07.481Z,6.65
2023-07-02T10:30:41.965Z,7.00
2023-07-02T10:33:19.780Z,7.47
2023-07-02T10:35:50.473Z,6.82
2023-07-02T10:38:26.142Z,7.97
2023-07-02T10:41:03.114Z,8.07
2023-07-02T10:43:37.899Z,7.60
2023-07-02T10:46:07.225Z,7.13
2023-07-02T10:48:36.493Z,6.90
2023-07-02T10:52:16.804Z,7.22
2023-07-02T10:55:32.738Z,7.20
2023-07-02T10:58:26.316Z,7.38
2023-07-02T11:00:56.779Z,7.18
2023-07-02T11:03:26.315Z,7.63
2023-07-02T11:08:47.241Z,6.63
2023-07-02T11:11:24.691Z,7.65
2023-07-02T11:14:47.539Z,7.28
2023-07-02T11:17:32.499Z,7.18
2023-07-02T11:20:02.840Z,7.45
2023-07-02T11:22:36.205Z,6.55
2023-07-02T11:25:33.689Z,7.40
2023-07-02T11:29:05.938Z,6.97
2023-07-02T11:32:24.686Z,7.32
2023-07-02T11:37:00.621Z,7.18
2023-07-02T11:47:25.051Z,7.13
2023-07-02T11:50:57.100Z,6.85
2023-07-02T11:57:33.458Z,7.30
2023-07-02T12:07:43.710Z,6.88
2023-07-02T12:17:58.575Z,6.85
2023-07-02T12:21:09.949Z,6.63
2023-07-02T12:28:03.155Z,7.20
2023-07-02T12:33:58.433Z,7.20
2023-07-02T12:40:42.460Z,5.85
2023-07-02T12:44:08.029Z,5.70
2023-07-02T12:46:47.313Z,5.90
2023-07-02T12:56:59.561Z,6.35
2023-07-02T12:59:51.653Z,6.03
2023-07-02T13:02:18.898Z,6.00
2023-07-02T13:04:49.124Z,5.88
2023-07-02T13:07:21.483Z,6.30
2023-07-02T13:09:48.298Z,6.03
2023-07-02T13:12:15.589Z,5.85
2023-07-02T13:14:51.935Z,5.97
2023-07-02T13:17:28.772Z,6.25
2023-07-02T13:22:42.306Z,5.32
2023-07-02T13:28:19.465Z,6.57
2023-07-02T13:31:28.179Z,5.72
2023-07-02T13:34:03.850Z,6.28
2023-07-02T13:36:35.922Z,6.07
2023-07-02T13:39:12.879Z,5.30
2023-07-02T13:41:42.747Z,5.88
2023-07-02T13:44:12.304Z,6.35
2023-07-02T13:46:48.160Z,6.03
2023-07-02T13:49:15.102Z,6.22
2023-07-02T13:51:48.507Z,5.57
2023-07-02T13:54:46.961Z,6.15
2023-07-02T13:58:02.288Z,6.10
2023-07-02T14:00:41.505Z,6.57
2023-07-02T14:03:17.476Z,6.47
2023-07-02T14:05:50.898Z,6.50
2023-07-02T14:11:57.553Z,5.45
2023-07-02T14:14:37.819Z,6.40
2023-07-02T14:17:31.912Z,5.88
2023-07-02T14:20:12.772Z,6.07
2023-07-02T14:23:13.717Z,6.13
2023-07-02T14:25:42.234Z,5.97
2023-07-02T14:28:12.901Z,5.57
2023-07-02T14:30:40.057Z,5.70
2023-07-02T14:33:07.352Z,6.22
2023-07-02T14:35:44.280Z,5.78
2023-07-02T14:38:16.759Z,5.70
2023-07-02T14:40:57.751Z,5.68
2023-07-02T14:43:30.867Z,5.20
2023-07-02T14:46:08.157Z,5.75
2023-07-02T14:48:47.587Z,5.60
2023-07-02T14:51:16.139Z,5.18
2023-07-02T14:54:02.098Z,4.93
2023-07-02T14:56:31.781Z,5.85
2023-07-02T14:59:09.479Z,4.75
2023-07-02T15:01:42.591Z,6.13
2023-07-02T15:04:12.406Z,6.35
2023-07-02T15:06:39.862Z,5.55
2023-07-02T15:09:06.649Z,5.78
2023-07-02T15:11:33.440Z,5.68
2023-07-02T15:14:02.795Z,5.75
2023-07-02T15:16:29.592Z,5.55
2023-07-02T15:18:58.196Z,5.40
2023-07-02T15:21:28.506Z,5.50
2023-07-02T15:23:55.356Z,5.53
2023-07-02T15:26:22.385Z,5.35
2023-07-02T15:28:50.063Z,5.80
2023-07-02T15:31:18.658Z,5.20
2023-07-02T15:33:47.399Z,5.55
2023-07-02T15:36:15.138Z,5.93
2023-07-02T15:38:42.029Z,5.70
2023-07-02T15:41:16.804Z,5.18
2023-07-02T15:43:45.037Z,5.75
2023-07-02T15:46:14.831Z,5.22
2023-07-02T15:48:45.667Z,4.72
2023-07-02T15:51:12.818Z,6.75
2023-07-02T15:53:41.874Z,6.15
2023-07-02T15:56:09.127Z,5.10
2023-07-02T15:58:36.102Z,5.40
2023-07-02T16:01:15.842Z,4.70
2023-07-02T16:03:43.539Z,5.13
2023-07-02T16:06:15.089Z,5.63
2023-07-02T16:08:42.681Z,5.05
2023-07-02T16:11:10.686Z,5.28
2023-07-02T16:13:39.460Z,4.60
2023-07-02T16:16:08.786Z,5.05
2023-07-02T16:18:37.463Z,5.07
2023-07-02T16:21:05.782Z,5.20
2023-07-02T16:23:33.071Z,5.55
2023-07-02T16:26:03.369Z,5.28
2023-07-02T16:28:31.758Z,4.93
2023-07-02T16:30:58.957Z,5.00
2023-07-02T16:33:37.170Z,5.38
2023-07-02T16:36:08.630Z,5.10
2023-07-02T16:38:36.475Z,4.90
2023-07-02T16:41:04.478Z,5.18
2023-07-02T16:43:39.859Z,5.15
2023-07-02T16:46:09.454Z,5.03
2023-07-02T16:48:46.922Z,5.03
2023-07-02T16:51:20.042Z,4.57
2023-07-02T16:53:47.024Z,4.85
2023-07-02T16:56:13.938Z,4.70
2023-07-02T16:58:53.395Z,5.00
2023-07-02T17:01:20.612Z,4.72
2023-07-02T17:03:55.172Z,4.13
2023-07-02T17:06:22.284Z,4.72
2023-07-02T17:09:27.146Z,4.90
2023-07-02T17:11:57.871Z,5.25
2023-07-02T17:14:29.323Z,4.30
2023-07-02T17:17:02.760Z,4.47
2023-07-02T17:20:06.186Z,5.07
2023-07-02T17:22:40.600Z,4.45
2023-07-02T17:25:07.941Z,4.53
2023-07-02T17:27:39.861Z,4.85
2023-07-02T17:30:12.690Z,4.22
2023-07-02T17:32:40.556Z,4.78
2023-07-02T17:35:14.510Z,4.40
2023-07-02T17:37:41.697Z,4.93
2023-07-02T17:40:12.557Z,4.45
2023-07-02T17:42:43.070Z,4.80
2023-07-02T17:45:13.129Z,4.20
2023-07-02T17:47:40.127Z,4.45
2023-07-02T17:50:14.543Z,4.20
2023-07-02T17:52:41.414Z,4.72
2023-07-02T17:55:13.149Z,4.00
2023-07-02T17:58:08.805Z,4.45
2023-07-02T18:00:56.158Z,4.38
2023-07-02T18:03:23.414Z,4.00
2023-07-02T18:06:50.658Z,4.32
2023-07-02T18:09:50.818Z,4.40
2023-07-02T18:12:40.749Z,4.43
2023-07-02T18:15:36.890Z,4.88
2023-07-02T18:22:12.442Z,5.05
2023-07-02T18:25:47.799Z,4.82
2023-07-02T18:28:59.294Z,4.93
2023-07-02T18:32:15.179Z,4.53
2023-07-02T18:38:44.523Z,4.40
2023-07-02T18:49:30.750Z,5.60
2023-07-02T18:54:46.619Z,5.28
2023-07-02T18:58:23.138Z,4.80
2023-07-02T19:01:08.319Z,4.93
2023-07-02T19:04:08.376Z,4.50
2023-07-02T19:06:51.302Z,4.93
2023-07-02T19:10:13.661Z,4.43
2023-07-02T19:12:50.098Z,4.97
2023-07-02T19:18:54.743Z,4.70
2023-07-02T19:22:05.732Z,4.85
2023-07-02T19:28:18.373Z,4.60
2023-07-02T19:31:16.888Z,5.25
2023-07-02T19:37:52.793Z,5.00
2023-07-02T19:44:30.928Z,5.03
2023-07-02T19:47:30.148Z,4.55
2023-07-02T19:50:21.713Z,5.00
2023-07-02T19:52:58.416Z,5.07
2023-07-02T19:55:25.238Z,5.20
2023-07-02T19:57:52.087Z,4.68
2023-07-02T20:00:19.134Z,4.63
2023-07-02T20:02:46.020Z,4.43
2023-07-02T20:05:13.546Z,5.00
2023-07-02T20:07:40.481Z,5.05
2023-07-02T20:10:08.405Z,4.50
2023-07-02T20:12:35.265Z,4.47
2023-07-02T20:15:03.476Z,4.97
2023-07-02T20:17:30.841Z,4.60
2023-07-02T20:19:59.784Z,5.20
2023-07-02T20:22:27.250Z,4.93
2023-07-02T20:24:54.135Z,5.20
2023-07-02T20:27:29.567Z,5.28
2023-07-02T20:29:57.552Z,4.97
2023-07-02T20:32:24.469Z,5.75
2023-07-02T20:34:51.529Z,6.18
2023-07-02T20:37:19.481Z,5.75
2023-07-02T20:39:48.808Z,5.32
2023-07-02T20:42:19.328Z,4.90
2023-07-02T20:44:53.252Z,5.35
2023-07-02T20:47:25.036Z,5.35
2023-07-02T20:49:52.689Z,5.72
2023-07-02T20:52:22.576Z,4.97
2023-07-02T20:54:53.798Z,5.38
2023-07-02T20:57:20.933Z,5.85
2023-07-02T20:59:49.224Z,5.57
2023-07-02T21:02:23.664Z,5.13
2023-07-02T21:04:57.172Z,5.22
2023-07-02T21:07:37.575Z,5.05
2023-07-02T21:10:05.031Z,5.30
2023-07-02T21:12:37.986Z,4.80
2023-07-02T21:15:05.322Z,5.43
2023-07-02T21:17:32.505Z,5.28
2023-07-02T21:19:59.564Z,5.57
2023-07-02T21:22:28.881Z,5.32
2023-07-02T21:24:56.008Z,5.43
2023-07-02T21:27:22.784Z,5.47
2023-07-02T21:29:52.789Z,5.13
2023-07-02T21:32:19.579Z,4.80
2023-07-02T21:34:46.530Z,5.05
2023-07-02T21:37:13.476Z,5.15
2023-07-02T21:39:45.856Z,5.20
2023-07-02T21:42:29.011Z,4.65
2023-07-02T21:44:55.817Z,5.10
2023-07-02T21:47:22.818Z,5.75
2023-07-02T21:49:49.834Z,5.50
2023-07-02T21:52:17.736Z,4.75
2023-07-02T21:54:44.617Z,5.28
2023-07-02T21:57:11.464Z,5.30
2023-07-02T21:59:40.801Z,5.20
2023-07-02T22:02:07.961Z,4.97
2023-07-02T22:04:39.918Z,5.20
2023-07-02T22:07:07.037Z,4.90
2023-07-02T22:10:00.422Z,5.22
2023-07-02T22:12:30.566Z,4.70
2023-07-02T22:14:57.538Z,6.03
2023-07-02T22:17:25.897Z,5.30
2023-07-02T22:19:55.742Z,4.88
2023-07-02T22:22:23.979Z,4.60
2023-07-02T22:24:50.859Z,5.20
2023-07-02T22:27:17.788Z,4.32
2023-07-02T22:29:46.927Z,4.53
2023-07-02T22:32:13.977Z,4.97
2023-07-02T22:34:49.498Z,4.55
2023-07-02T22:37:16.343Z,4.13
2023-07-02T22:39:43.204Z,5.40
2023-07-02T22:42:10.013Z,4.43
2023-07-02T22:44:37.272Z,4.57
2023-07-02T22:47:07.981Z,4.40
2023-07-02T22:49:48.853Z,5.00
2023-07-02T22:52:19.343Z,4.78
2023-07-02T22:54:46.368Z,4.85
2023-07-02T22:57:13.134Z,4.18
2023-07-02T22:59:39.876Z,4.88
